createdAt,value
2018-05-01T00:00:09.429Z,17.51
2018-05-01T00:02:37.992Z,17.48
2018-05-01T00:05:06.548Z,17.42
2018-05-01T00:07:35.110Z,17.37
2018-05-01T00:10:03.329Z,17.35
2018-05-01T00:12:31.938Z,17.34
2018-05-01T00:15:00.507Z,17.33
2018-05-01T00:17:29.073Z,17.25
2018-05-01T00:19:57.628Z,17.21
2018-05-01T00:22:26.187Z,17.21
2018-05-01T00:24:54.756Z,17.22
2018-05-01T00:27:23.335Z,17.20
2018-05-01T00:29:51.897Z,17.11
2018-05-01T00:32:20.463Z,17.02
2018-05-01T00:34:49.055Z,16.98
2018-05-01T00:37:17.606Z,16.94
2018-05-01T00:39:46.511Z,16.93
2018-05-01T00:42:15.094Z,16.91
2018-05-01T00:44:43.690Z,16.90
2018-05-01T00:47:12.269Z,16.81
2018-05-01T00:49:40.868Z,16.72
2018-05-01T00:52:08.753Z,16.68
2018-05-01T00:54:37.367Z,16.63
2018-05-01T00:57:05.929Z,16.67
2018-05-01T00:59:34.491Z,16.70
2018-05-01T01:02:03.043Z,16.70
2018-05-01T01:04:31.598Z,16.69
2018-05-01T01:07:00.171Z,16.66
2018-05-01T01:09:28.971Z,16.67
2018-05-01T01:11:57.527Z,16.64
2018-05-01T01:14:25.901Z,16.60
2018-05-01T01:16:54.508Z,16.55
2018-05-01T01:19:23.068Z,16.50
2018-05-01T01:21:51.632Z,16.49
2018-05-01T01:24:20.193Z,16.48
2018-05-01T01:26:48.547Z,16.50
2018-05-01T01:29:17.149Z,16.49
2018-05-01T01:31:45.759Z,16.45
2018-05-01T01:34:14.390Z,16.38
2018-05-01T01:36:41.712Z,16.35
2018-05-01T01:39:09.084Z,16.30
2018-05-01T01:41:36.448Z,16.21
2018-05-01T01:44:03.826Z,16.20
2018-05-01T01:46:31.153Z,16.11
2018-05-01T01:48:58.533Z,16.08
2018-05-01T01:51:25.907Z,16.09
2018-05-01T01:53:53.232Z,16.05
2018-05-01T01:56:20.559Z,16.02
2018-05-01T01:58:47.871Z,16.00
2018-05-01T02:01:15.237Z,15.94
2018-05-01T02:03:42.565Z,15.89
2018-05-01T02:06:09.905Z,15.90
2018-05-01T02:08:37.228Z,15.93
2018-05-01T02:11:04.604Z,15.94
2018-05-01T02:13:32.180Z,15.96
2018-05-01T02:15:59.545Z,15.96
2018-05-01T02:18:26.894Z,15.95
2018-05-01T02:23:27.863Z,15.87
2018-05-01T02:25:55.249Z,15.78
2018-05-01T02:28:22.741Z,15.70
2018-05-01T02:30:50.069Z,15.69
2018-05-01T02:33:17.402Z,15.72
2018-05-01T02:35:44.806Z,15.74
2018-05-01T02:38:12.132Z,15.75
2018-05-01T02:40:39.471Z,15.77
2018-05-01T02:43:06.795Z,15.80
2018-05-01T02:45:34.127Z,15.82
2018-05-01T02:48:01.453Z,15.86
2018-05-01T02:50:28.800Z,15.86
2018-05-01T02:52:56.123Z,15.86
2018-05-01T02:55:23.457Z,15.89
2018-05-01T02:57:50.831Z,15.91
2018-05-01T03:00:18.148Z,15.93
2018-05-01T03:02:45.500Z,15.93
2018-05-01T03:05:12.832Z,15.88
2018-05-01T03:07:40.155Z,15.85
2018-05-01T03:10:07.487Z,15.87
2018-05-01T03:12:34.818Z,15.81
2018-05-01T03:15:02.162Z,15.77
2018-05-01T03:17:29.490Z,15.80
2018-05-01T03:19:56.847Z,15.78
2018-05-01T03:22:24.175Z,15.75
2018-05-01T03:24:51.572Z,15.69
2018-05-01T03:27:18.931Z,15.66
2018-05-01T03:29:46.258Z,15.60
2018-05-01T03:32:13.654Z,15.55
2018-05-01T03:34:40.991Z,15.49
2018-05-01T03:37:08.328Z,15.48
2018-05-01T03:39:35.677Z,15.50
2018-05-01T03:42:03.059Z,15.46
2018-05-01T03:44:30.407Z,15.41
2018-05-01T03:46:57.782Z,15.46
2018-05-01T03:49:25.125Z,15.50
2018-05-01T03:51:52.500Z,15.56
2018-05-01T03:54:19.829Z,15.57
2018-05-01T03:56:47.159Z,15.57
2018-05-01T03:59:14.484Z,15.68
2018-05-01T04:01:41.848Z,15.77
2018-05-01T04:04:09.178Z,15.90
2018-05-01T04:06:36.552Z,15.94
2018-05-01T04:09:03.660Z,16.02
2018-05-01T04:11:30.984Z,16.07
2018-05-01T04:13:59.230Z,16.12
2018-05-01T04:16:26.572Z,16.20
2018-05-01T04:18:53.916Z,16.24
2018-05-01T04:21:21.530Z,16.33
2018-05-01T04:23:48.867Z,16.34
2018-05-01T04:26:16.183Z,16.40
2018-05-01T04:28:43.498Z,16.50
2018-05-01T04:31:10.842Z,16.57
2018-05-01T04:33:38.178Z,16.88
2018-05-01T04:36:05.523Z,17.17
2018-05-01T04:38:32.861Z,17.56
2018-05-01T04:41:00.285Z,17.94
2018-05-01T04:43:27.629Z,18.38
2018-05-01T04:45:55.067Z,18.68
2018-05-01T04:48:22.176Z,19.14
2018-05-01T04:50:49.503Z,19.44
2018-05-01T04:53:16.878Z,19.68
2018-05-01T04:55:44.200Z,20.06
2018-05-01T04:58:11.545Z,20.32
2018-05-01T05:00:38.879Z,20.53
2018-05-01T05:03:06.206Z,20.54
2018-05-01T05:05:33.544Z,20.89
2018-05-01T05:08:00.923Z,21.07
2018-05-01T05:10:28.248Z,21.08
2018-05-01T05:12:55.627Z,20.94
2018-05-01T05:15:22.952Z,20.62
2018-05-01T05:17:50.275Z,20.63
2018-05-01T05:20:17.599Z,20.52
2018-05-01T05:22:44.935Z,20.46
2018-05-01T05:25:12.263Z,20.29
2018-05-01T05:27:39.593Z,20.27
2018-05-01T05:30:06.978Z,20.07
2018-05-01T05:32:34.304Z,20.01
2018-05-01T05:35:01.642Z,19.95
2018-05-01T05:37:28.976Z,20.03
2018-05-01T05:39:56.302Z,20.16
2018-05-01T05:42:23.631Z,20.23
2018-05-01T05:44:50.953Z,20.28
2018-05-01T05:47:18.269Z,20.20
2018-05-01T05:49:45.596Z,20.14
2018-05-01T05:52:12.918Z,20.09
2018-05-01T05:54:40.248Z,20.10
2018-05-01T05:57:07.583Z,20.15
2018-05-01T05:59:34.903Z,20.12
2018-05-01T06:02:02.231Z,20.18
2018-05-01T06:04:30.276Z,20.24
2018-05-01T06:06:57.606Z,20.24
2018-05-01T06:09:24.978Z,20.35
2018-05-01T06:11:52.308Z,20.28
2018-05-01T06:14:19.639Z,20.11
2018-05-01T06:16:47.029Z,20.05
2018-05-01T06:19:14.361Z,20.08
2018-05-01T06:21:41.680Z,20.09
2018-05-01T06:24:09.015Z,20.10
2018-05-01T06:26:36.330Z,20.06
2018-05-01T06:29:03.784Z,20.06
2018-05-01T06:31:31.143Z,20.02
2018-05-01T06:33:58.486Z,20.08
2018-05-01T06:36:25.816Z,20.12
2018-05-01T06:38:53.148Z,20.08
2018-05-01T06:41:20.475Z,20.17
2018-05-01T06:43:47.821Z,20.20
2018-05-01T06:46:15.327Z,20.25
2018-05-01T06:48:43.399Z,20.37
2018-05-01T06:51:10.717Z,20.47
2018-05-01T06:53:38.041Z,20.50
2018-05-01T06:56:05.359Z,20.60
2018-05-01T06:58:32.707Z,20.53
2018-05-01T07:01:00.061Z,20.59
2018-05-01T07:03:27.387Z,20.71
2018-05-01T07:05:55.461Z,20.74
2018-05-01T07:08:22.902Z,20.80
2018-05-01T07:10:50.231Z,20.91
2018-05-01T07:13:17.619Z,21.00
2018-05-01T07:15:45.084Z,21.02
2018-05-01T07:18:12.426Z,21.04
2018-05-01T07:20:39.747Z,21.16
2018-05-01T07:23:07.106Z,21.30
2018-05-01T07:25:34.427Z,21.31
2018-05-01T07:28:01.811Z,21.32
2018-05-01T07:30:29.174Z,21.24
2018-05-01T07:32:56.539Z,21.19
2018-05-01T07:35:23.705Z,21.23
2018-05-01T07:37:51.031Z,21.35
2018-05-01T07:40:18.365Z,21.38
2018-05-01T07:42:45.700Z,21.38
2018-05-01T07:45:13.057Z,21.45
2018-05-01T07:47:40.423Z,21.55
2018-05-01T07:50:07.754Z,21.72
2018-05-01T07:52:35.082Z,21.92
2018-05-01T07:55:02.403Z,21.89
2018-05-01T07:57:29.764Z,21.88
2018-05-01T07:59:57.083Z,21.76
2018-05-01T08:02:24.408Z,21.78
2018-05-01T08:04:51.726Z,21.83
2018-05-01T08:07:19.062Z,21.79
2018-05-01T08:09:46.384Z,21.88
2018-05-01T08:12:13.718Z,21.92
2018-05-01T08:14:41.350Z,22.13
2018-05-01T08:17:08.681Z,22.25
2018-05-01T08:19:36.057Z,22.30
2018-05-01T08:22:03.370Z,22.42
2018-05-01T08:24:30.773Z,22.53
2018-05-01T08:26:58.287Z,22.52
2018-05-01T08:29:25.649Z,22.53
2018-05-01T08:31:52.972Z,22.64
2018-05-01T08:34:20.299Z,22.73
2018-05-01T08:36:48.653Z,22.81
2018-05-01T08:39:16.114Z,22.91
2018-05-01T08:41:43.451Z,23.04
2018-05-01T08:44:10.775Z,23.11
2018-05-01T08:46:38.121Z,23.13
2018-05-01T08:49:05.443Z,23.25
2018-05-01T08:51:32.773Z,23.37
2018-05-01T08:54:00.113Z,23.45
2018-05-01T08:56:27.441Z,23.49
2018-05-01T08:58:54.784Z,23.57
2018-05-01T09:01:22.103Z,23.61
2018-05-01T09:03:49.543Z,23.70
2018-05-01T09:06:18.733Z,23.73
2018-05-01T09:08:46.885Z,23.75
2018-05-01T09:11:14.263Z,23.76
2018-05-01T09:13:41.581Z,23.73
2018-05-01T09:16:09.020Z,23.75
2018-05-01T09:18:36.353Z,23.83
2018-05-01T09:21:03.677Z,23.80
2018-05-01T09:23:30.996Z,23.78
2018-05-01T09:25:58.421Z,23.91
2018-05-01T09:28:26.286Z,23.95
2018-05-01T09:30:53.644Z,24.02
2018-05-01T09:33:20.970Z,24.02
2018-05-01T09:35:48.301Z,24.10
2018-05-01T09:38:15.667Z,24.09
2018-05-01T09:40:42.992Z,24.06
2018-05-01T09:43:10.306Z,24.20
2018-05-01T09:45:38.325Z,24.25
2018-05-01T09:48:05.641Z,24.31
2018-05-01T09:50:32.998Z,24.38
2018-05-01T09:53:01.599Z,24.41
2018-05-01T09:55:30.154Z,24.43
2018-05-01T09:57:58.751Z,24.47
2018-05-01T10:00:27.372Z,24.47
2018-05-01T10:02:55.712Z,24.48
2018-05-01T10:05:27.343Z,24.56
2018-05-01T10:07:55.915Z,24.63
2018-05-01T10:10:24.472Z,24.70
2018-05-01T10:12:53.026Z,24.69
2018-05-01T10:15:21.397Z,24.69
2018-05-01T10:17:49.995Z,24.76
2018-05-01T10:20:18.591Z,24.84
2018-05-01T10:22:47.176Z,24.89
2018-05-01T10:25:15.561Z,24.97
2018-05-01T10:27:43.907Z,24.98
2018-05-01T10:30:12.233Z,25.07
2018-05-01T10:32:40.799Z,25.18
2018-05-01T10:35:09.354Z,25.31
2018-05-01T10:37:37.939Z,25.35
2018-05-01T10:40:06.516Z,25.35
2018-05-01T10:42:35.263Z,25.23
2018-05-01T10:45:03.816Z,25.28
2018-05-01T10:47:32.362Z,25.39
2018-05-01T10:50:00.965Z,25.33
2018-05-01T10:52:29.291Z,25.22
2018-05-01T10:54:57.843Z,25.18
2018-05-01T10:57:26.391Z,25.21
2018-05-01T10:59:54.951Z,25.29
2018-05-01T11:02:23.523Z,25.45
2018-05-01T11:04:52.108Z,25.48
2018-05-01T11:07:20.657Z,25.45
2018-05-01T11:09:49.284Z,25.52
2018-05-01T11:12:17.623Z,25.57
2018-05-01T11:14:46.199Z,25.48
2018-05-01T11:17:14.751Z,25.40
2018-05-01T11:19:44.210Z,25.14
2018-05-01T11:22:12.778Z,25.10
2018-05-01T11:24:41.455Z,25.34
2018-05-01T11:27:10.195Z,25.63
2018-05-01T11:29:38.755Z,25.93
2018-05-01T11:32:07.332Z,26.08
2018-05-01T11:34:35.886Z,25.79
2018-05-01T11:37:04.443Z,25.38
2018-05-01T11:39:33.006Z,25.20
2018-05-01T11:42:01.672Z,25.13
2018-05-01T11:44:30.229Z,25.04
2018-05-01T11:46:58.803Z,25.04
2018-05-01T11:49:27.575Z,25.23
2018-05-01T11:51:56.140Z,25.39
2018-05-01T11:54:25.466Z,25.39
2018-05-01T11:56:54.091Z,25.24
2018-05-01T11:59:22.943Z,25.16
2018-05-01T12:01:51.724Z,25.02
2018-05-01T12:04:20.801Z,24.97
2018-05-01T12:06:49.391Z,24.89
2018-05-01T12:09:18.787Z,24.83
2018-05-01T12:11:47.337Z,24.79
2018-05-01T12:14:16.847Z,24.90
2018-05-01T12:16:45.429Z,25.02
2018-05-01T12:19:14.041Z,25.15
2018-05-01T12:21:42.598Z,25.13
2018-05-01T12:24:11.205Z,25.28
2018-05-01T12:26:39.823Z,25.42
2018-05-01T12:29:08.376Z,25.51
2018-05-01T12:31:36.974Z,25.68
2018-05-01T12:34:05.537Z,25.72
2018-05-01T12:36:34.245Z,25.84
2018-05-01T12:39:02.905Z,25.91
2018-05-01T12:41:31.522Z,25.81
2018-05-01T12:44:00.088Z,25.82
2018-05-01T12:46:28.639Z,25.91
2018-05-01T12:48:57.278Z,26.03
2018-05-01T12:51:25.849Z,26.02
2018-05-01T12:53:54.528Z,26.04
2018-05-01T12:56:23.232Z,26.08
2018-05-01T12:58:51.795Z,26.17
2018-05-01T13:01:20.357Z,26.36
2018-05-01T13:03:48.911Z,26.47
2018-05-01T13:06:17.512Z,26.40
2018-05-01T13:08:46.829Z,26.30
2018-05-01T13:11:15.381Z,26.37
2018-05-01T13:13:43.934Z,26.44
2018-05-01T13:16:12.859Z,26.55
2018-05-01T13:18:43.210Z,26.66
2018-05-01T13:21:11.780Z,26.70
2018-05-01T13:23:40.365Z,26.85
2018-05-01T13:26:08.934Z,26.91
2018-05-01T13:28:37.489Z,27.00
2018-05-01T13:31:06.980Z,26.87
2018-05-01T13:33:35.556Z,26.77
2018-05-01T13:36:04.121Z,26.81
2018-05-01T13:38:32.688Z,26.77
2018-05-01T13:41:01.264Z,26.95
2018-05-01T13:43:29.824Z,27.02
2018-05-01T13:45:58.406Z,27.13
2018-05-01T13:48:26.978Z,27.24
2018-05-01T13:50:55.540Z,27.23
2018-05-01T13:53:23.865Z,27.38
2018-05-01T13:55:52.425Z,27.44
2018-05-01T13:58:21.050Z,27.55
2018-05-01T14:00:49.622Z,27.62
2018-05-01T14:03:18.197Z,27.70
2018-05-01T14:05:46.402Z,27.80
2018-05-01T14:08:15.003Z,27.62
2018-05-01T14:10:43.563Z,27.74
2018-05-01T14:13:12.141Z,27.74
2018-05-01T14:15:41.896Z,27.90
2018-05-01T14:18:10.472Z,28.06
2018-05-01T14:20:39.035Z,28.06
2018-05-01T14:23:07.632Z,28.20
2018-05-01T14:25:36.384Z,28.29
2018-05-01T14:28:05.019Z,28.26
2018-05-01T14:30:33.635Z,28.11
2018-05-01T14:33:02.192Z,28.02
2018-05-01T14:35:30.768Z,28.25
2018-05-01T14:38:00.248Z,28.45
2018-05-01T14:40:28.807Z,28.29
2018-05-01T14:42:57.387Z,28.11
2018-05-01T14:45:25.944Z,28.19
2018-05-01T14:47:54.711Z,28.41
2018-05-01T14:50:23.263Z,28.46
2018-05-01T14:52:52.726Z,28.46
2018-05-01T14:55:22.133Z,28.47
2018-05-01T14:57:51.082Z,28.44
2018-05-01T15:00:27.972Z,28.55
2018-05-01T15:03:06.826Z,28.38
2018-05-01T15:05:42.253Z,28.23
2018-05-01T15:08:11.336Z,27.87
2018-05-01T15:10:39.975Z,27.37
2018-05-01T15:13:18.113Z,26.96
2018-05-01T15:15:46.753Z,26.55
2018-05-01T15:18:15.342Z,26.25
2018-05-01T15:20:44.007Z,26.24
2018-05-01T15:23:12.467Z,26.06
2018-05-01T15:25:41.032Z,25.79
2018-05-01T15:28:09.607Z,25.86
2018-05-01T15:30:37.338Z,25.90
2018-05-01T15:33:05.892Z,25.48
2018-05-01T15:35:34.582Z,25.31
2018-05-01T15:38:04.083Z,25.26
2018-05-01T15:40:32.650Z,25.32
2018-05-01T15:43:01.215Z,25.37
2018-05-01T15:45:29.767Z,25.36
2018-05-01T15:47:59.204Z,25.24
2018-05-01T15:50:27.782Z,25.03
2018-05-01T15:52:56.861Z,24.86
2018-05-01T15:55:25.458Z,24.78
2018-05-01T15:57:54.006Z,24.83
2018-05-01T16:00:22.284Z,24.83
2018-05-01T16:02:50.865Z,24.68
2018-05-01T16:05:19.429Z,24.44
2018-05-01T16:07:47.672Z,24.26
2018-05-01T16:10:16.285Z,23.93
2018-05-01T16:12:44.661Z,23.82
2018-05-01T16:15:13.031Z,23.67
2018-05-01T16:17:41.359Z,23.76
2018-05-01T16:20:09.965Z,23.81
2018-05-01T16:22:38.523Z,23.81
2018-05-01T16:25:07.190Z,23.83
2018-05-01T16:27:35.758Z,23.82
2018-05-01T16:30:05.002Z,23.88
2018-05-01T16:32:33.398Z,23.94
2018-05-01T16:35:02.026Z,23.99
2018-05-01T16:37:30.647Z,24.03
2018-05-01T16:39:59.244Z,24.08
2018-05-01T16:42:27.840Z,24.03
2018-05-01T16:44:56.442Z,23.96
2018-05-01T16:47:25.007Z,23.90
2018-05-01T16:49:53.620Z,23.82
2018-05-01T16:52:22.179Z,23.84
2018-05-01T16:54:50.784Z,23.81
2018-05-01T16:57:19.371Z,23.84
2018-05-01T16:59:47.960Z,23.82
2018-05-01T17:02:16.570Z,23.75
2018-05-01T17:04:45.256Z,23.66
2018-05-01T17:07:13.806Z,23.58
2018-05-01T17:09:42.371Z,23.55
2018-05-01T17:12:10.635Z,23.52
2018-05-01T17:14:39.253Z,23.46
2018-05-01T17:17:08.830Z,23.39
2018-05-01T17:19:37.410Z,23.29
2018-05-01T17:22:06.010Z,23.25
2018-05-01T17:24:34.759Z,23.20
2018-05-01T17:27:03.320Z,23.11
2018-05-01T17:29:32.720Z,23.01
2018-05-01T17:32:01.283Z,23.03
2018-05-01T17:34:29.844Z,22.98
2018-05-01T17:36:58.420Z,22.99
2018-05-01T17:39:27.119Z,22.98
2018-05-01T17:41:55.683Z,22.93
2018-05-01T17:44:24.263Z,22.89
2018-05-01T17:46:52.848Z,22.83
2018-05-01T17:49:21.404Z,22.80
2018-05-01T17:51:50.023Z,22.82
2018-05-01T17:54:18.583Z,22.77
2018-05-01T17:56:48.136Z,22.78
2018-05-01T17:59:16.874Z,22.78
2018-05-01T18:01:45.510Z,22.76
2018-05-01T18:04:14.172Z,22.78
2018-05-01T18:06:42.773Z,22.74
2018-05-01T18:09:11.355Z,22.74
2018-05-01T18:11:39.907Z,22.73
2018-05-01T18:14:08.488Z,22.73
2018-05-01T18:16:37.055Z,22.70
2018-05-01T18:19:05.810Z,22.66
2018-05-01T18:21:34.378Z,22.60
2018-05-01T18:24:03.079Z,22.53
2018-05-01T18:26:31.644Z,22.43
2018-05-01T18:29:00.195Z,22.33
2018-05-01T18:31:28.947Z,22.29
2018-05-01T18:33:57.508Z,22.27
2018-05-01T18:36:26.079Z,22.24
2018-05-01T18:38:54.712Z,22.21
2018-05-01T18:41:23.375Z,22.19
2018-05-01T18:43:51.955Z,22.14
2018-05-01T18:46:20.573Z,22.04
2018-05-01T18:48:49.237Z,22.05
2018-05-01T18:51:17.828Z,22.04
2018-05-01T18:53:46.474Z,21.92
2018-05-01T18:56:15.040Z,21.89
2018-05-01T18:58:44.603Z,21.87
2018-05-01T19:01:13.156Z,21.83
2018-05-01T19:03:41.708Z,21.80
2018-05-01T19:06:10.395Z,21.79
2018-05-01T19:08:39.031Z,21.72
2018-05-01T19:11:07.390Z,21.68
2018-05-01T19:13:35.993Z,21.66
2018-05-01T19:16:04.564Z,21.62
2018-05-01T19:18:36.345Z,21.58
2018-05-01T19:21:04.901Z,21.54
2018-05-01T19:23:33.468Z,21.48
2018-05-01T19:26:03.134Z,21.45
2018-05-01T19:28:31.701Z,21.36
2018-05-01T19:31:00.266Z,21.31
2018-05-01T19:33:28.820Z,21.18
2018-05-01T19:36:00.917Z,21.15
2018-05-01T19:38:29.637Z,21.21
2018-05-01T19:40:58.196Z,21.20
2018-05-01T19:43:26.755Z,21.17
2018-05-01T19:45:55.338Z,21.11
2018-05-01T19:48:23.908Z,21.05
2018-05-01T19:50:52.503Z,20.99
2018-05-01T19:53:22.254Z,20.92
2018-05-01T19:55:50.848Z,20.95
2018-05-01T19:58:19.427Z,20.90
2018-05-01T20:00:48.073Z,20.90
2018-05-01T20:03:16.714Z,20.78
2018-05-01T20:05:45.499Z,20.74
2018-05-01T20:08:14.067Z,20.68
2018-05-01T20:10:42.630Z,20.68
2018-05-01T20:13:12.159Z,20.71
2018-05-01T20:15:42.620Z,20.74
2018-05-01T20:18:11.179Z,20.76
2018-05-01T20:20:39.762Z,20.73
2018-05-01T20:23:08.335Z,20.52
2018-05-01T20:25:36.952Z,20.44
2018-05-01T20:28:05.511Z,20.49
2018-05-01T20:30:34.113Z,20.50
2018-05-01T20:33:02.687Z,20.55
2018-05-01T20:35:31.250Z,20.57
2018-05-01T20:37:59.883Z,20.54
2018-05-01T20:40:28.479Z,20.54
2018-05-01T20:42:57.121Z,20.49
2018-05-01T20:45:25.722Z,20.51
2018-05-01T20:47:54.280Z,20.44
2018-05-01T20:50:22.841Z,20.46
2018-05-01T20:52:51.427Z,20.47
2018-05-01T20:55:20.002Z,20.40
2018-05-01T20:57:48.600Z,20.23
2018-05-01T21:00:17.468Z,20.14
2018-05-01T21:02:46.032Z,20.03
2018-05-01T21:05:14.640Z,19.90
2018-05-01T21:07:43.248Z,19.78
2018-05-01T21:10:14.784Z,19.60
2018-05-01T21:12:43.440Z,19.58
2018-05-01T21:15:11.999Z,19.47
2018-05-01T21:17:40.561Z,19.39
2018-05-01T21:20:09.130Z,19.30
2018-05-01T21:22:38.559Z,19.25
2018-05-01T21:25:07.749Z,19.26
2018-05-01T21:27:40.759Z,19.28
2018-05-01T21:30:09.762Z,19.21
2018-05-01T21:32:38.328Z,19.20
2018-05-01T21:35:06.911Z,19.19
2018-05-01T21:37:35.494Z,19.17
2018-05-01T21:40:03.704Z,19.11
2018-05-01T21:42:32.304Z,19.08
2018-05-01T21:45:01.253Z,19.05
2018-05-01T21:47:29.823Z,19.04
2018-05-01T21:49:58.384Z,18.97
2018-05-01T21:52:26.944Z,18.96
2018-05-01T21:54:56.121Z,18.98
2018-05-01T21:57:24.699Z,18.89
2018-05-01T21:59:53.295Z,18.86
2018-05-01T22:02:21.887Z,18.87
2018-05-01T22:04:50.459Z,18.83
2018-05-01T22:07:19.036Z,18.81
2018-05-01T22:09:47.585Z,18.81
2018-05-01T22:12:16.191Z,18.80
2018-05-01T22:14:44.465Z,18.78
2018-05-01T22:17:13.053Z,18.73
2018-05-01T22:19:41.612Z,18.74
2018-05-01T22:22:11.147Z,18.70
2018-05-01T22:24:39.695Z,18.75
2018-05-01T22:27:08.275Z,18.80
2018-05-01T22:29:37.003Z,18.79
2018-05-01T22:32:05.206Z,18.80
2018-05-01T22:34:33.772Z,18.80
2018-05-01T22:37:02.323Z,18.76
2018-05-01T22:39:30.868Z,18.74
2018-05-01T22:42:00.057Z,18.80
2018-05-01T22:44:28.610Z,18.78
2018-05-01T22:46:57.166Z,18.71
2018-05-01T22:49:25.716Z,18.68
2018-05-01T22:51:54.316Z,18.64
2018-05-01T22:54:22.863Z,18.62
2018-05-01T22:56:51.418Z,18.63
2018-05-01T22:59:19.743Z,18.53
2018-05-01T23:01:48.305Z,18.54
2018-05-01T23:04:16.867Z,18.48
2018-05-01T23:06:45.441Z,18.46
2018-05-01T23:09:14.002Z,18.44
2018-05-01T23:11:42.549Z,18.39
2018-05-01T23:14:11.152Z,18.36
2018-05-01T23:16:39.701Z,18.28
2018-05-01T23:19:08.262Z,18.30
2018-05-01T23:21:36.815Z,18.22
2018-05-01T23:24:05.365Z,18.23
2018-05-01T23:26:33.923Z,18.22
2018-05-01T23:29:02.540Z,18.16
2018-05-01T23:31:31.252Z,18.14
2018-05-01T23:33:59.805Z,18.09
2018-05-01T23:36:28.354Z,18.03
2018-05-01T23:38:56.904Z,18.02
2018-05-01T23:41:25.478Z,17.98
2018-05-01T23:43:54.047Z,17.93
2018-05-01T23:46:22.600Z,17.86
2018-05-01T23:48:51.207Z,17.83
2018-05-01T23:51:19.807Z,17.83
2018-05-01T23:53:48.381Z,17.81
2018-05-01T23:56:16.939Z,17.81
2018-05-01T23:58:45.505Z,17.76
